createdAt,value
2017-12-09T00:00:37.185Z,6.20
2017-12-09T00:03:05.380Z,6.10
2017-12-09T00:05:33.001Z,6.10
2017-12-09T00:08:00.624Z,6.10
2017-12-09T00:10:28.973Z,6.10
2017-12-09T00:12:56.576Z,6.00
2017-12-09T00:15:25.491Z,6.00
2017-12-09T00:17:53.108Z,6.00
2017-12-09T00:20:21.112Z,6.00
2017-12-09T00:22:49.499Z,5.90
2017-12-09T00:25:17.872Z,6.00
2017-12-09T00:27:47.421Z,5.90
2017-12-09T00:30:15.118Z,5.90
2017-12-09T00:32:42.955Z,5.90
2017-12-09T00:35:10.682Z,5.90
2017-12-09T00:37:39.400Z,5.90
2017-12-09T00:40:08.958Z,5.90
2017-12-09T00:42:37.326Z,5.90
2017-12-09T00:45:05.724Z,5.90
2017-12-09T00:47:33.324Z,5.80
2017-12-09T00:50:01.611Z,5.90
2017-12-09T00:52:29.210Z,5.80
2017-12-09T00:54:57.571Z,5.80
2017-12-09T00:57:25.949Z,5.90
2017-12-09T00:59:53.536Z,5.80
2017-12-09T01:02:21.920Z,5.90
2017-12-09T01:04:50.277Z,5.80
2017-12-09T01:07:17.904Z,5.80
2017-12-09T01:09:45.484Z,5.80
2017-12-09T01:12:13.088Z,5.80
2017-12-09T01:14:40.717Z,5.80
2017-12-09T01:20:13.026Z,5.80
2017-12-09T01:22:41.403Z,5.80
2017-12-09T01:25:09.789Z,5.80
2017-12-09T01:27:37.389Z,5.70
2017-12-09T01:30:05.005Z,5.70
2017-12-09T01:32:33.368Z,5.70
2017-12-09T01:35:01.019Z,5.60
2017-12-09T01:37:28.612Z,5.70
2017-12-09T01:39:56.238Z,5.70
2017-12-09T01:42:24.608Z,5.70
2017-12-09T01:44:52.285Z,5.70
2017-12-09T01:47:19.931Z,5.80
2017-12-09T01:49:47.552Z,5.70
2017-12-09T01:52:15.216Z,5.70
2017-12-09T01:54:42.824Z,5.80
2017-12-09T01:57:10.421Z,5.70
2017-12-09T01:59:38.056Z,5.70
2017-12-09T02:02:05.669Z,5.70
2017-12-09T02:04:33.325Z,5.70
2017-12-09T02:07:00.920Z,5.70
2017-12-09T02:09:28.525Z,5.70
2017-12-09T02:11:56.173Z,5.70
2017-12-09T02:14:24.545Z,5.70
2017-12-09T02:16:52.937Z,5.70
2017-12-09T02:19:20.553Z,5.60
2017-12-09T02:21:48.169Z,5.60
2017-12-09T02:24:15.882Z,5.60
2017-12-09T02:26:43.489Z,5.60
2017-12-09T02:29:11.128Z,5.60
2017-12-09T02:31:39.497Z,5.60
2017-12-09T02:34:07.866Z,5.60
2017-12-09T02:36:35.509Z,5.50
2017-12-09T02:39:03.132Z,5.60
2017-12-09T02:41:30.752Z,5.60
2017-12-09T02:43:58.348Z,5.60
2017-12-09T02:46:25.966Z,5.60
2017-12-09T02:48:53.601Z,5.50
2017-12-09T02:51:21.206Z,5.50
2017-12-09T02:53:48.846Z,5.50
2017-12-09T02:56:16.474Z,5.50
2017-12-09T02:58:44.101Z,5.50
2017-12-09T03:01:12.482Z,5.50
2017-12-09T03:03:40.840Z,5.50
2017-12-09T03:06:09.241Z,5.40
2017-12-09T03:08:37.609Z,5.40
2017-12-09T03:11:06.013Z,5.40
2017-12-09T03:13:33.645Z,5.40
2017-12-09T03:16:01.290Z,5.50
2017-12-09T03:18:28.933Z,5.50
2017-12-09T03:20:56.550Z,5.50
2017-12-09T03:23:24.932Z,5.50
2017-12-09T03:25:53.351Z,5.50
2017-12-09T03:28:20.977Z,5.40
2017-12-09T03:30:48.605Z,5.40
2017-12-09T03:33:16.201Z,5.40
2017-12-09T03:35:43.824Z,5.40
2017-12-09T03:38:11.453Z,5.40
2017-12-09T03:40:39.090Z,5.50
2017-12-09T03:43:06.779Z,5.50
2017-12-09T03:45:34.444Z,5.50
2017-12-09T03:48:02.053Z,5.50
2017-12-09T03:50:30.422Z,5.50
2017-12-09T03:52:58.828Z,5.40
2017-12-09T03:55:26.463Z,5.40
2017-12-09T03:57:54.108Z,5.40
2017-12-09T04:00:23.208Z,5.40
2017-12-09T04:02:51.572Z,5.50
2017-12-09T04:05:19.320Z,5.40
2017-12-09T04:07:46.937Z,5.50
2017-12-09T04:10:15.353Z,5.50
2017-12-09T04:12:42.962Z,5.40
2017-12-09T04:15:11.352Z,5.40
2017-12-09T04:17:39.728Z,5.50
2017-12-09T04:20:08.101Z,5.50
2017-12-09T04:22:36.492Z,5.50
2017-12-09T04:25:04.905Z,5.50
2017-12-09T04:27:32.541Z,5.40
2017-12-09T04:30:00.156Z,5.50
2017-12-09T04:32:27.769Z,5.60
2017-12-09T04:34:55.405Z,5.50
2017-12-09T04:37:23.761Z,5.50
2017-12-09T04:39:51.392Z,5.40
2017-12-09T04:42:18.976Z,5.50
2017-12-09T04:44:46.601Z,5.50
2017-12-09T04:47:14.230Z,5.50
2017-12-09T04:49:42.603Z,5.50
2017-12-09T04:52:11.301Z,5.50
2017-12-09T04:54:38.912Z,5.40
2017-12-09T04:57:06.520Z,5.50
2017-12-09T04:59:34.932Z,5.50
2017-12-09T05:02:02.560Z,5.40
2017-12-09T05:04:30.964Z,5.50
2017-12-09T05:06:58.577Z,5.50
2017-12-09T05:09:26.181Z,5.50
2017-12-09T05:11:53.813Z,5.50
2017-12-09T05:14:22.192Z,5.50
2017-12-09T05:16:50.593Z,5.50
2017-12-09T05:19:18.218Z,5.40
2017-12-09T05:21:45.826Z,5.60
2017-12-09T05:24:13.460Z,5.50
2017-12-09T05:26:41.842Z,5.50
2017-12-09T05:29:10.239Z,5.60
2017-12-09T05:31:37.859Z,5.50
2017-12-09T05:34:05.588Z,5.60
2017-12-09T05:36:33.225Z,5.60
2017-12-09T05:39:00.821Z,5.60
2017-12-09T05:41:28.456Z,5.60
2017-12-09T05:43:56.058Z,5.60
2017-12-09T05:46:25.173Z,5.50
2017-12-09T05:48:53.572Z,5.60
2017-12-09T05:51:21.164Z,5.50
2017-12-09T05:53:48.797Z,5.60
2017-12-09T05:56:16.398Z,5.60
2017-12-09T05:58:44.002Z,5.60
2017-12-09T06:01:12.385Z,5.60
2017-12-09T06:03:40.736Z,5.60
2017-12-09T06:06:08.389Z,5.50
2017-12-09T06:08:36.761Z,5.60
2017-12-09T06:11:04.364Z,5.50
2017-12-09T06:13:32.755Z,5.60
2017-12-09T06:16:00.349Z,5.50
2017-12-09T06:18:27.984Z,5.60
2017-12-09T06:20:55.581Z,5.60
2017-12-09T06:23:23.223Z,5.50
2017-12-09T06:25:50.854Z,5.50
2017-12-09T06:28:18.452Z,5.50
2017-12-09T06:30:46.134Z,5.60
2017-12-09T06:33:13.755Z,5.60
2017-12-09T06:35:41.380Z,5.60
2017-12-09T06:38:09.772Z,5.60
2017-12-09T06:40:38.136Z,5.70
2017-12-09T06:43:06.539Z,5.70
2017-12-09T06:45:34.136Z,5.60
2017-12-09T06:48:01.728Z,5.60
2017-12-09T06:50:29.348Z,5.60
2017-12-09T06:52:56.947Z,5.70
2017-12-09T06:55:24.573Z,5.70
2017-12-09T06:57:52.179Z,5.60
2017-12-09T07:00:20.585Z,5.60
2017-12-09T07:02:48.181Z,5.60
2017-12-09T07:05:15.785Z,5.60
2017-12-09T07:07:44.162Z,5.60
2017-12-09T07:10:12.528Z,5.60
2017-12-09T07:12:40.167Z,5.60
2017-12-09T07:15:07.756Z,5.60
2017-12-09T07:17:36.124Z,5.60
2017-12-09T07:20:03.775Z,5.50
2017-12-09T07:22:31.372Z,5.60
2017-12-09T07:24:59.789Z,5.60
2017-12-09T07:27:28.188Z,5.60
2017-12-09T07:29:55.792Z,5.50
2017-12-09T07:32:23.425Z,5.60
2017-12-09T07:34:51.029Z,5.60
2017-12-09T07:37:18.648Z,5.60
2017-12-09T07:39:46.245Z,5.60
2017-12-09T07:42:13.868Z,5.60
2017-12-09T07:44:41.460Z,5.60
2017-12-09T07:47:09.097Z,5.60
2017-12-09T07:49:36.708Z,5.60
2017-12-09T07:52:04.304Z,5.60
2017-12-09T07:54:31.926Z,5.60
2017-12-09T07:56:59.525Z,5.60
2017-12-09T07:59:27.145Z,5.60
2017-12-09T08:01:54.736Z,5.60
2017-12-09T08:04:22.356Z,5.60
2017-12-09T08:06:49.946Z,5.60
2017-12-09T08:09:17.546Z,5.60
2017-12-09T08:11:45.946Z,5.60
2017-12-09T08:14:13.536Z,5.60
2017-12-09T08:16:41.161Z,5.70
2017-12-09T08:19:09.553Z,5.60
2017-12-09T08:21:37.184Z,5.50
2017-12-09T08:24:05.587Z,5.50
2017-12-09T08:26:33.189Z,5.50
2017-12-09T08:29:01.201Z,5.50
2017-12-09T08:31:29.565Z,5.50
2017-12-09T08:33:57.160Z,5.40
2017-12-09T08:36:24.812Z,5.50
2017-12-09T08:38:53.190Z,5.50
2017-12-09T08:41:21.593Z,5.50
2017-12-09T08:43:49.196Z,5.40
2017-12-09T08:46:16.827Z,5.50
2017-12-09T08:48:44.477Z,5.50
2017-12-09T08:51:12.085Z,5.50
2017-12-09T08:53:39.733Z,5.50
2017-12-09T08:56:07.325Z,5.50
2017-12-09T08:58:35.705Z,5.50
2017-12-09T09:01:04.101Z,5.50
2017-12-09T09:03:32.476Z,5.50
2017-12-09T09:06:00.101Z,5.40
2017-12-09T09:08:27.700Z,5.50
2017-12-09T09:10:55.308Z,5.50
2017-12-09T09:13:22.949Z,5.50
2017-12-09T09:15:50.584Z,5.50
2017-12-09T09:18:18.241Z,5.50
2017-12-09T09:20:45.843Z,5.50
2017-12-09T09:23:13.443Z,5.50
2017-12-09T09:25:41.831Z,5.50
2017-12-09T09:28:10.193Z,5.50
2017-12-09T09:30:37.838Z,5.40
2017-12-09T09:33:05.437Z,5.50
2017-12-09T09:35:33.829Z,5.60
2017-12-09T09:38:01.448Z,5.50
2017-12-09T09:40:29.053Z,5.60
2017-12-09T09:42:56.687Z,5.60
2017-12-09T09:45:25.049Z,5.70
2017-12-09T09:47:53.412Z,5.70
2017-12-09T09:50:21.045Z,5.60
2017-12-09T09:52:48.657Z,5.70
2017-12-09T09:55:17.061Z,5.70
2017-12-09T09:57:44.673Z,5.70
2017-12-09T10:00:12.644Z,5.80
2017-12-09T10:02:40.497Z,5.70
2017-12-09T10:05:08.112Z,5.80
2017-12-09T10:07:36.515Z,5.80
2017-12-09T10:10:04.122Z,5.70
2017-12-09T10:12:33.242Z,5.80
2017-12-09T10:15:01.646Z,5.80
2017-12-09T10:17:29.255Z,5.80
2017-12-09T10:19:56.900Z,5.90
2017-12-09T10:22:24.497Z,5.90
2017-12-09T10:24:52.860Z,5.90
2017-12-09T10:27:20.491Z,5.90
2017-12-09T10:29:48.089Z,5.90
2017-12-09T10:32:15.718Z,6.00
2017-12-09T10:34:43.334Z,6.00
2017-12-09T10:37:10.942Z,6.00
2017-12-09T10:39:38.568Z,6.00
2017-12-09T10:42:06.197Z,6.00
2017-12-09T10:44:34.626Z,6.10
2017-12-09T10:47:02.229Z,6.00
2017-12-09T10:49:29.957Z,6.00
2017-12-09T10:52:00.638Z,6.10
2017-12-09T10:54:28.392Z,6.10
2017-12-09T10:56:56.023Z,6.10
2017-12-09T10:59:23.688Z,6.10
2017-12-09T11:01:51.438Z,6.10
2017-12-09T11:04:19.072Z,6.10
2017-12-09T11:06:46.681Z,6.10
2017-12-09T11:09:14.448Z,6.20
2017-12-09T11:11:43.022Z,6.20
2017-12-09T11:14:10.613Z,6.20
2017-12-09T11:16:39.001Z,6.40
2017-12-09T11:19:07.396Z,6.40
2017-12-09T11:21:35.906Z,6.50
2017-12-09T11:24:03.694Z,6.40
2017-12-09T11:26:31.333Z,6.50
2017-12-09T11:28:58.932Z,6.50
2017-12-09T11:31:26.568Z,6.50
2017-12-09T11:33:54.179Z,6.50
2017-12-09T11:36:21.824Z,6.50
2017-12-09T11:38:50.233Z,6.50
2017-12-09T11:41:17.862Z,6.50
2017-12-09T11:43:46.242Z,6.60
2017-12-09T11:46:14.638Z,6.60
2017-12-09T11:48:43.012Z,6.60
2017-12-09T11:51:11.413Z,6.60
2017-12-09T11:53:39.014Z,6.60
2017-12-09T11:56:06.609Z,6.60
2017-12-09T11:58:35.037Z,6.70
2017-12-09T12:01:02.641Z,6.60
2017-12-09T12:03:31.073Z,6.70
2017-12-09T12:05:58.682Z,6.70
2017-12-09T12:08:27.081Z,6.80
2017-12-09T12:10:54.705Z,6.70
2017-12-09T12:13:23.090Z,6.90
2017-12-09T12:15:50.719Z,6.80
2017-12-09T12:18:18.324Z,6.90
2017-12-09T12:20:46.730Z,6.90
2017-12-09T12:23:14.337Z,6.90
2017-12-09T12:25:41.941Z,7.00
2017-12-09T12:28:09.576Z,7.00
2017-12-09T12:30:37.213Z,7.00
2017-12-09T12:33:04.855Z,7.00
2017-12-09T12:35:32.458Z,7.00
2017-12-09T12:38:00.094Z,7.10
2017-12-09T12:40:27.732Z,7.10
2017-12-09T12:42:55.321Z,7.20
2017-12-09T12:45:22.957Z,7.20
2017-12-09T12:47:50.569Z,7.20
2017-12-09T12:50:18.992Z,7.20
2017-12-09T12:52:46.637Z,7.20
2017-12-09T12:55:14.261Z,7.30
2017-12-09T12:57:41.890Z,7.30
2017-12-09T13:00:09.485Z,7.30
2017-12-09T13:02:37.088Z,7.30
2017-12-09T13:05:04.733Z,7.30
2017-12-09T13:07:32.360Z,7.30
2017-12-09T13:10:01.476Z,7.20
2017-12-09T13:12:29.865Z,7.20
2017-12-09T13:14:58.237Z,7.20
2017-12-09T13:17:26.603Z,7.20
2017-12-09T13:19:54.240Z,7.20
2017-12-09T13:22:21.834Z,7.20
2017-12-09T13:24:50.199Z,7.20
2017-12-09T13:27:17.832Z,7.20
2017-12-09T13:29:45.437Z,7.20
2017-12-09T13:32:13.845Z,7.20
2017-12-09T13:34:41.751Z,7.10
2017-12-09T13:37:09.611Z,7.20
2017-12-09T13:39:37.397Z,7.20
2017-12-09T13:42:05.009Z,7.20
2017-12-09T13:44:32.797Z,7.10
2017-12-09T13:47:02.116Z,7.10
2017-12-09T13:49:30.671Z,7.10
2017-12-09T13:52:01.302Z,7.10
2017-12-09T13:54:29.290Z,7.10
2017-12-09T13:56:57.976Z,7.10
2017-12-09T13:59:25.657Z,7.10
2017-12-09T14:01:55.327Z,7.10
2017-12-09T14:04:23.193Z,7.10
2017-12-09T14:06:50.852Z,7.20
2017-12-09T14:09:19.636Z,7.20
2017-12-09T14:11:47.421Z,7.20
2017-12-09T14:14:15.078Z,7.20
2017-12-09T14:16:43.966Z,7.20
2017-12-09T14:19:11.751Z,7.10
2017-12-09T14:21:39.485Z,7.10
2017-12-09T14:24:07.476Z,7.10
2017-12-09T14:26:35.141Z,7.00
2017-12-09T14:29:02.883Z,7.10
2017-12-09T14:31:30.492Z,7.00
2017-12-09T14:33:59.074Z,7.00
2017-12-09T14:36:27.550Z,7.00
2017-12-09T14:38:56.188Z,6.90
2017-12-09T14:41:23.980Z,7.00
2017-12-09T14:43:51.723Z,6.90
2017-12-09T14:46:21.859Z,6.90
2017-12-09T14:48:52.502Z,6.80
2017-12-09T14:51:20.386Z,6.80
2017-12-09T14:53:48.153Z,6.80
2017-12-09T14:56:16.699Z,6.80
2017-12-09T14:58:44.582Z,6.70
2017-12-09T15:01:12.226Z,6.80
2017-12-09T15:03:39.921Z,6.70
2017-12-09T15:06:07.665Z,6.70
2017-12-09T15:08:35.407Z,6.70
2017-12-09T15:11:03.188Z,6.70
2017-12-09T15:13:30.814Z,6.70
2017-12-09T15:15:58.463Z,6.70
2017-12-09T15:18:26.157Z,6.60
2017-12-09T15:20:54.024Z,6.60
2017-12-09T15:23:21.636Z,6.50
2017-12-09T15:25:50.012Z,6.50
2017-12-09T15:28:18.485Z,6.40
2017-12-09T15:30:46.892Z,6.40
2017-12-09T15:33:14.691Z,6.40
2017-12-09T15:35:42.561Z,6.40
2017-12-09T15:38:10.215Z,6.40
2017-12-09T15:40:37.988Z,6.40
2017-12-09T15:43:05.657Z,6.40
2017-12-09T15:45:33.411Z,6.40
2017-12-09T15:48:01.197Z,6.40
2017-12-09T15:50:30.324Z,6.30
2017-12-09T15:52:58.859Z,6.30
2017-12-09T15:55:26.718Z,6.30
2017-12-09T15:57:54.586Z,6.30
2017-12-09T16:00:22.388Z,6.30
2017-12-09T16:02:50.049Z,6.30
2017-12-09T16:05:17.881Z,6.30
2017-12-09T16:07:45.668Z,6.30
2017-12-09T16:10:13.415Z,6.30
2017-12-09T16:12:41.179Z,6.30
2017-12-09T16:15:08.976Z,6.20
2017-12-09T16:17:36.734Z,6.20
2017-12-09T16:20:05.300Z,6.10
2017-12-09T16:22:33.069Z,6.10
2017-12-09T16:25:01.659Z,6.10
2017-12-09T16:27:29.420Z,6.10
2017-12-09T16:29:57.162Z,6.10
2017-12-09T16:32:24.923Z,6.10
2017-12-09T16:34:52.622Z,6.10
2017-12-09T16:37:20.353Z,6.10
2017-12-09T16:39:48.038Z,6.10
2017-12-09T16:42:15.777Z,6.10
2017-12-09T16:44:43.650Z,6.10
2017-12-09T16:47:11.525Z,6.10
2017-12-09T16:49:39.177Z,6.10
2017-12-09T16:52:06.958Z,6.10
2017-12-09T16:54:34.600Z,6.00
2017-12-09T16:57:02.385Z,6.00
2017-12-09T16:59:30.229Z,6.00
2017-12-09T17:01:57.917Z,6.10
2017-12-09T17:04:25.756Z,6.10
2017-12-09T17:06:53.537Z,6.10
2017-12-09T17:09:21.186Z,6.00
2017-12-09T17:11:48.951Z,6.00
2017-12-09T17:14:16.716Z,6.00
2017-12-09T17:16:44.436Z,6.00
2017-12-09T17:19:12.988Z,6.00
2017-12-09T17:21:40.638Z,5.90
2017-12-09T17:27:14.653Z,6.00
2017-12-09T17:29:42.520Z,6.00
2017-12-09T17:32:12.459Z,6.10
2017-12-09T17:34:40.420Z,6.00
2017-12-09T17:37:09.189Z,6.10
2017-12-09T17:39:38.099Z,6.10
2017-12-09T17:42:08.306Z,6.10
2017-12-09T17:44:36.497Z,6.10
2017-12-09T17:47:05.390Z,6.10
2017-12-09T17:49:33.354Z,6.00
2017-12-09T17:52:01.725Z,6.10
2017-12-09T17:54:29.798Z,6.10
2017-12-09T17:56:57.977Z,6.10
2017-12-09T17:59:27.271Z,6.10
2017-12-09T18:01:55.552Z,6.20
2017-12-09T18:04:23.553Z,6.20
2017-12-09T18:06:52.618Z,6.20
2017-12-09T18:09:21.164Z,6.10
2017-12-09T18:11:49.730Z,6.20
2017-12-09T18:14:17.884Z,6.10
2017-12-09T18:16:46.375Z,6.10
2017-12-09T18:19:15.642Z,6.10
2017-12-09T18:21:44.322Z,6.10
2017-12-09T18:24:13.169Z,6.00
2017-12-09T19:48:40.509Z,4.90
2017-12-09T19:51:10.207Z,4.90
2017-12-09T19:53:38.989Z,4.90
2017-12-09T19:56:07.600Z,5.10
2017-12-09T19:58:36.259Z,5.20
2017-12-09T20:01:04.913Z,5.30
2017-12-09T20:03:33.260Z,5.50
2017-12-09T20:06:01.338Z,5.50
2017-12-09T20:08:29.755Z,5.60
2017-12-09T20:10:58.189Z,5.60
2017-12-09T20:13:27.786Z,5.60
2017-12-09T20:15:55.750Z,5.60
2017-12-09T20:18:24.210Z,5.70
2017-12-09T20:20:52.207Z,5.70
2017-12-09T20:23:20.176Z,5.70
2017-12-09T20:25:48.146Z,5.70
2017-12-09T20:28:16.046Z,5.80
2017-12-09T20:30:44.746Z,5.80
2017-12-09T20:33:12.719Z,5.70
2017-12-09T20:35:41.813Z,5.80
2017-12-09T20:38:11.185Z,5.80
2017-12-09T20:40:39.441Z,5.80
2017-12-09T20:43:07.704Z,5.70
2017-12-09T20:45:35.997Z,5.80
2017-12-09T20:48:04.029Z,5.80
2017-12-09T20:50:31.934Z,5.80
2017-12-09T20:53:00.002Z,5.70
2017-12-09T20:55:28.081Z,5.70
2017-12-09T20:57:55.686Z,5.80
2017-12-09T21:00:23.317Z,5.70
2017-12-09T21:02:51.683Z,5.80
2017-12-09T21:05:20.832Z,5.70
2017-12-09T21:07:48.434Z,5.70
2017-12-09T21:10:16.037Z,5.80
2017-12-09T21:12:43.663Z,5.70
2017-12-09T21:15:11.248Z,5.70
2017-12-09T21:17:39.644Z,5.70
2017-12-09T21:20:07.253Z,5.70
2017-12-09T21:22:34.837Z,5.70
2017-12-09T21:25:03.973Z,5.60
2017-12-09T21:27:31.601Z,5.70
2017-12-09T21:30:00.020Z,5.70
2017-12-09T21:32:27.620Z,5.70
2017-12-09T21:34:55.226Z,5.70
2017-12-09T21:37:22.852Z,5.70
2017-12-09T21:39:50.448Z,5.70
2017-12-09T21:42:18.086Z,5.70
2017-12-09T21:44:46.532Z,5.80
2017-12-09T21:47:14.132Z,5.70
2017-12-09T21:49:42.768Z,5.70
2017-12-09T21:52:10.365Z,5.70
2017-12-09T21:54:37.989Z,5.80
2017-12-09T21:57:05.582Z,5.70
2017-12-09T21:59:33.221Z,5.70
2017-12-09T22:02:00.820Z,5.70
2017-12-09T22:04:29.180Z,5.70
2017-12-09T22:06:57.561Z,5.70
2017-12-09T22:09:25.158Z,5.70
2017-12-09T22:11:52.773Z,5.70
2017-12-09T22:14:20.394Z,5.70
2017-12-09T22:16:48.018Z,5.80
2017-12-09T22:19:16.385Z,5.80
2017-12-09T22:21:44.017Z,5.70
2017-12-09T22:24:11.633Z,5.80
2017-12-09T22:26:39.989Z,5.90
2017-12-09T22:29:07.762Z,5.80
2017-12-09T22:31:36.135Z,6.00
2017-12-09T22:34:04.534Z,6.00
2017-12-09T22:36:32.169Z,5.90
2017-12-09T22:39:00.541Z,5.90
2017-12-09T22:41:29.706Z,5.90
2017-12-09T22:43:57.301Z,5.90
2017-12-09T22:46:24.933Z,6.00
2017-12-09T22:48:54.322Z,6.00
2017-12-09T22:51:23.913Z,6.00
2017-12-09T22:53:53.715Z,6.00
2017-12-09T22:56:23.702Z,6.00
2017-12-09T22:58:54.185Z,6.00
2017-12-09T23:01:22.704Z,6.00
2017-12-09T23:03:51.801Z,6.00
2017-12-09T23:06:19.428Z,6.00
2017-12-09T23:08:47.037Z,6.00
2017-12-09T23:11:15.457Z,6.00
2017-12-09T23:13:43.245Z,6.00
2017-12-09T23:16:10.921Z,6.00
2017-12-09T23:18:38.544Z,6.00
2017-12-09T23:21:06.150Z,5.90
2017-12-09T23:23:33.785Z,5.90
2017-12-09T23:26:01.377Z,6.00
2017-12-09T23:28:29.000Z,6.00
2017-12-09T23:30:56.614Z,6.00
2017-12-09T23:33:24.971Z,6.00
2017-12-09T23:35:53.380Z,6.00
2017-12-09T23:38:21.744Z,6.00
2017-12-09T23:40:50.144Z,6.00
2017-12-09T23:43:17.737Z,5.90
2017-12-09T23:45:45.361Z,6.00
2017-12-09T23:48:14.003Z,6.00
2017-12-09T23:50:41.648Z,5.90
2017-12-09T23:53:09.280Z,6.00
2017-12-09T23:55:36.884Z,6.00
2017-12-09T23:58:04.480Z,6.00
